Time;durP1;ratioP1;P1;durP2;ratioP2;P2;SDS_P1;SDS_P2;PMS_P1;PMS_P2;Temp;Humidity;BMP_temperature;BMP_pressure;BME280_temperature;BME280_humidity;BME280_pressure;Samples;Min_cycle;Max_cycle;Signal;HPM_P1;HPM_P2
2023/05/06 00:01:50;;;;;;;9.20;6.10;;;;;;;11.67;88.31;101530.78;5067093;28;20458;-77
2023/05/06 00:04:15;;;;;;;7.18;5.32;;;;;;;11.66;88.51;101526.47;5067089;28;20499;-77
2023/05/06 00:06:41;;;;;;;7.10;5.43;;;;;;;11.65;88.41;101522.97;5067160;28;20039;-77
2023/05/06 00:09:06;;;;;;;7.63;5.68;;;;;;;11.64;88.87;101521.25;5069204;28;20043;-76
2023/05/06 00:11:32;;;;;;;7.70;5.70;;;;;;;11.64;88.69;101518.66;5062240;28;20020;-77
2023/05/06 00:13:57;;;;;;;6.78;5.55;;;;;;;11.64;88.86;101515.22;5065777;28;20607;-77
2023/05/06 00:16:23;;;;;;;8.85;6.22;;;;;;;11.65;89.02;101516.94;5066332;28;20461;-77
2023/05/06 00:18:48;;;;;;;8.20;6.20;;;;;;;11.64;89.18;101516.06;5062442;28;20031;-76
2023/05/06 00:21:13;;;;;;;8.02;6.05;;;;;;;11.64;88.95;101510.00;5063187;28;20079;-77
2023/05/06 00:23:38;;;;;;;8.38;5.82;;;;;;;11.59;89.29;101510.09;5067861;28;20031;-77
2023/05/06 00:26:04;;;;;;;7.57;5.72;;;;;;;11.58;89.18;101516.19;5064221;28;20362;-76
2023/05/06 00:28:29;;;;;;;7.40;5.55;;;;;;;11.56;89.24;101507.53;5064762;28;20044;-76
2023/05/06 00:30:54;;;;;;;8.60;6.30;;;;;;;11.55;89.38;101503.22;5065886;28;20025;-76
2023/05/06 00:33:20;;;;;;;8.43;6.22;;;;;;;11.54;89.21;101506.72;5066786;28;20073;-76
2023/05/06 00:35:45;;;;;;;7.95;6.35;;;;;;;11.50;89.01;101502.44;5068125;28;20067;-77
2023/05/06 00:38:12;;;;;;;7.95;6.13;;;;;;;11.48;89.10;101496.38;5066819;28;20028;-77
2023/05/06 00:40:38;;;;;;;9.00;6.68;;;;;;;11.47;89.59;101503.34;5067605;28;20069;-77
2023/05/06 00:43:04;;;;;;;7.88;6.20;;;;;;;11.46;89.71;101503.38;5066773;28;20032;-76
2023/05/06 00:45:29;;;;;;;9.45;6.10;;;;;;;11.44;89.60;101498.19;5066775;28;20047;-77
2023/05/06 00:47:55;;;;;;;9.35;5.97;;;;;;;11.43;89.71;101495.63;5065565;28;20043;-76
2023/05/06 00:50:21;;;;;;;8.52;6.47;;;;;;;11.39;90.09;101503.50;5067100;28;20017;-77
2023/05/06 00:52:47;;;;;;;7.55;6.15;;;;;;;11.36;90.12;101500.94;5063117;28;20021;-76
2023/05/06 00:55:13;;;;;;;7.07;5.82;;;;;;;11.36;90.67;101506.16;5062745;28;20081;-77
2023/05/06 00:57:39;;;;;;;7.85;5.82;;;;;;;11.36;91.06;101506.16;5067054;28;20093;-77
2023/05/06 01:00:06;;;;;;;7.78;6.18;;;;;;;11.35;89.90;101499.22;5070109;28;20025;-76
2023/05/06 01:02:31;;;;;;;8.93;6.80;;;;;;;11.34;90.09;101500.13;5070375;28;20434;-77
2023/05/06 01:04:57;;;;;;;9.85;6.45;;;;;;;11.31;90.37;101497.56;5072441;28;20117;-77
2023/05/06 01:07:43;;;;;;;8.75;6.35;;;;;;;11.32;90.06;101494.06;5067539;28;20060;-76
2023/05/06 01:10:34;;;;;;;9.98;6.68;;;;;;;11.30;89.48;101492.41;5072064;28;20025;-76
2023/05/06 01:13:13;;;;;;;8.85;6.50;;;;;;;11.30;90.14;101492.41;5071202;28;20396;-76
2023/05/06 01:15:47;;;;;;;9.30;6.32;;;;;;;11.28;90.21;101495.00;5070560;28;20094;-76
2023/05/06 01:18:16;;;;;;;8.45;6.72;;;;;;;11.27;90.27;101492.44;5070116;28;20042;-76
2023/05/06 01:20:44;;;;;;;8.48;6.68;;;;;;;11.24;90.65;101491.59;5070572;28;20020;-76
2023/05/06 01:23:11;;;;;;;8.68;6.95;;;;;;;11.23;91.24;101489.03;5065186;28;20438;-77
2023/05/06 01:25:37;;;;;;;8.98;6.43;;;;;;;11.22;90.30;101492.53;5070168;28;20036;-77
2023/05/06 01:28:02;;;;;;;8.60;6.93;;;;;;;11.20;89.90;101486.50;5062877;28;20389;-77
2023/05/06 01:30:37;;;;;;;8.20;6.47;;;;;;;11.16;89.88;101493.50;5063969;28;20111;-76
2023/05/06 01:33:11;;;;;;;8.50;5.97;;;;;;;11.13;89.86;101493.56;5067308;28;20029;-76
2023/05/06 01:35:49;;;;;;;8.85;6.43;;;;;;;11.12;89.39;101485.75;5068410;28;20431;-77
2023/05/06 01:38:28;;;;;;;8.40;6.50;;;;;;;11.09;89.60;101491.88;5070007;28;20063;-76
2023/05/06 01:40:55;;;;;;;8.68;7.05;;;;;;;11.05;89.51;101485.88;5065290;28;20024;-76
2023/05/06 01:43:24;;;;;;;10.07;6.20;;;;;;;11.01;89.29;101486.81;5066928;28;20021;-76
2023/05/06 01:45:52;;;;;;;9.57;6.50;;;;;;;10.99;89.56;101491.19;5070249;28;20032;-76
2023/05/06 01:48:25;;;;;;;8.23;6.72;;;;;;;10.97;89.70;101489.50;5065729;28;20154;-77
2023/05/06 01:50:50;;;;;;;10.65;6.53;;;;;;;10.95;90.73;101486.91;5066333;28;20381;-76
2023/05/06 01:53:16;;;;;;;8.82;6.28;;;;;;;10.94;89.85;101482.56;5064345;28;20156;-76
2023/05/06 01:55:41;;;;;;;8.65;6.72;;;;;;;10.92;89.48;101495.63;5067065;28;20029;-76
2023/05/06 01:58:06;;;;;;;9.57;6.65;;;;;;;10.90;89.97;101506.97;5066844;28;20047;-76
2023/05/06 02:00:32;;;;;;;9.18;6.65;;;;;;;10.89;89.71;101500.03;5064626;28;20101;-76
2023/05/06 02:02:58;;;;;;;8.88;6.75;;;;;;;10.85;90.04;101499.22;5063602;28;20052;-77
2023/05/06 02:05:23;;;;;;;7.97;6.00;;;;;;;10.84;89.49;101496.66;5069360;28;20056;-76
2023/05/06 02:07:48;;;;;;;7.65;5.75;;;;;;;10.80;89.41;101494.97;5067418;28;20111;-76
2023/05/06 02:10:14;;;;;;;7.30;5.53;;;;;;;10.76;89.53;101508.03;5066032;28;20025;-76
2023/05/06 02:12:39;;;;;;;6.97;5.07;;;;;;;10.75;89.31;101502.84;5066235;28;20032;-76
2023/05/06 02:15:05;;;;;;;7.10;5.60;;;;;;;10.73;89.63;101510.69;5068589;28;20036;-76
2023/05/06 02:17:30;;;;;;;8.50;6.57;;;;;;;10.70;90.43;101520.28;5069629;28;20048;-76
2023/05/06 02:19:55;;;;;;;8.30;6.40;;;;;;;10.68;89.99;101516.84;5067883;28;20025;-76
2023/05/06 02:22:20;;;;;;;8.73;5.95;;;;;;;10.67;89.81;101516.00;5066171;28;20020;-76
2023/05/06 02:24:46;;;;;;;8.82;6.55;;;;;;;10.65;89.97;101509.94;5066616;28;20024;-76
2023/05/06 02:27:11;;;;;;;8.25;6.32;;;;;;;10.63;89.31;101511.72;5069893;28;20431;-76
2023/05/06 02:29:36;;;;;;;8.30;6.18;;;;;;;10.60;88.87;101511.75;5072126;28;20051;-76
2023/05/06 02:32:02;;;;;;;7.40;5.88;;;;;;;10.54;88.95;101504.06;5070088;28;20071;-76
2023/05/06 02:34:27;;;;;;;8.20;5.60;;;;;;;10.50;88.91;101510.19;5070343;28;20112;-76
2023/05/06 02:36:52;;;;;;;7.82;6.00;;;;;;;10.47;89.01;101509.34;5071537;28;20060;-76
2023/05/06 02:39:17;;;;;;;7.68;5.82;;;;;;;10.44;89.04;101504.19;5072529;28;20123;-76
2023/05/06 02:41:43;;;;;;;8.60;6.35;;;;;;;10.43;88.98;101506.81;5071767;28;20024;-76
2023/05/06 02:44:08;;;;;;;8.63;6.53;;;;;;;10.37;89.73;101515.53;5072254;28;20024;-76
2023/05/06 02:46:33;;;;;;;8.57;6.47;;;;;;;10.36;90.65;101511.22;5069666;28;20024;-76
2023/05/06 02:48:59;;;;;;;8.07;6.32;;;;;;;10.37;91.32;101507.72;5070060;28;20044;-77
2023/05/06 02:51:25;;;;;;;9.15;6.15;;;;;;;10.39;90.44;101499.94;5070999;28;20063;-76
2023/05/06 02:53:50;;;;;;;8.70;6.45;;;;;;;10.38;89.90;101493.88;5070147;28;20064;-76
2023/05/06 02:56:16;;;;;;;7.55;6.13;;;;;;;10.37;90.14;101497.31;5067374;28;20028;-76
2023/05/06 02:58:41;;;;;;;10.38;7.75;;;;;;;10.36;91.08;101500.81;5071193;28;20507;-76
2023/05/06 03:01:06;;;;;;;9.05;7.03;;;;;;;10.37;91.82;101505.13;5065861;28;20044;-77
2023/05/06 03:03:32;;;;;;;10.60;7.22;;;;;;;10.36;92.03;101498.22;5069678;28;20517;-77
2023/05/06 03:05:57;;;;;;;9.32;7.20;;;;;;;10.35;92.23;101496.47;5068727;28;20028;-76
2023/05/06 03:08:23;;;;;;;9.52;7.28;;;;;;;10.36;92.35;101500.81;5066289;28;20039;-76
2023/05/06 03:10:49;;;;;;;11.52;7.57;;;;;;;10.38;92.88;101488.69;5068435;28;20021;-76
2023/05/06 03:13:14;;;;;;;8.15;6.13;;;;;;;10.36;90.45;101493.00;5070361;28;20039;-76
2023/05/06 03:15:40;;;;;;;9.35;7.18;;;;;;;10.36;92.06;101489.53;5068408;28;20025;-76
2023/05/06 03:18:05;;;;;;;7.53;5.85;;;;;;;10.35;91.46;101487.81;5066996;28;20035;-76
2023/05/06 03:20:31;;;;;;;7.55;6.00;;;;;;;10.35;91.68;101487.81;5069075;28;20501;-77
2023/05/06 03:22:56;;;;;;;9.30;6.53;;;;;;;10.34;92.34;101494.75;5066960;28;20021;-77
2023/05/06 03:25:21;;;;;;;11.05;7.28;;;;;;;10.37;92.89;101491.25;5070304;28;20044;-77
2023/05/06 03:27:46;;;;;;;9.82;7.18;;;;;;;10.37;93.08;101486.91;5066741;28;20146;-77
2023/05/06 03:30:12;;;;;;;9.75;7.22;;;;;;;10.39;92.90;101495.59;5066193;28;20059;-77
2023/05/06 03:32:37;;;;;;;9.55;7.40;;;;;;;10.40;92.71;101497.31;5064383;28;20020;-77
2023/05/06 03:35:05;;;;;;;10.32;7.55;;;;;;;10.40;92.62;101494.72;5071026;28;20082;-77
2023/05/06 03:37:30;;;;;;;9.05;6.93;;;;;;;10.40;92.83;101494.72;5065637;28;20116;-77
2023/05/06 03:39:55;;;;;;;11.07;7.40;;;;;;;10.39;93.04;101490.41;5068825;28;20111;-77
2023/05/06 03:42:21;;;;;;;8.55;6.70;;;;;;;10.41;92.65;101498.16;5067074;28;20023;-76
2023/05/06 03:44:46;;;;;;;10.55;6.95;;;;;;;10.41;92.70;101495.56;5067571;28;20047;-77
2023/05/06 03:47:11;;;;;;;10.05;6.82;;;;;;;10.38;92.36;101493.88;5070720;28;20477;-77
2023/05/06 03:49:36;;;;;;;9.77;7.53;;;;;;;10.38;92.57;101492.97;5068820;28;20025;-76
2023/05/06 03:52:02;;;;;;;8.85;6.63;;;;;;;10.36;92.68;101490.41;5068200;28;20020;-77
2023/05/06 03:54:27;;;;;;;9.93;7.35;;;;;;;10.35;92.83;101483.47;5068193;28;20435;-76
2023/05/06 03:56:53;;;;;;;9.63;7.03;;;;;;;10.33;91.62;101485.25;5069950;28;20484;-77
2023/05/06 03:59:18;;;;;;;9.30;6.47;;;;;;;10.27;91.00;101483.59;5070074;28;20100;-77
2023/05/06 04:01:43;;;;;;;10.02;6.97;;;;;;;10.22;90.78;101493.19;5065472;28;20036;-77
2023/05/06 04:04:08;;;;;;;8.90;6.70;;;;;;;10.18;90.84;101487.19;5069590;28;20032;-77
2023/05/06 04:06:34;;;;;;;8.77;5.93;;;;;;;10.16;90.43;101491.53;5067885;28;20385;-77
2023/05/06 04:08:59;;;;;;;8.27;5.50;;;;;;;10.11;90.42;101492.47;5069472;28;21548;-76
2023/05/06 04:11:25;;;;;;;7.95;6.35;;;;;;;10.08;90.30;101490.75;5066113;28;20143;-76
2023/05/06 04:13:50;;;;;;;8.07;5.60;;;;;;;10.05;90.03;101495.16;5070144;28;20049;-76
2023/05/06 04:16:15;;;;;;;8.63;6.30;;;;;;;10.02;91.31;101496.91;5070414;28;20063;-76
2023/05/06 04:18:40;;;;;;;9.48;6.45;;;;;;;10.02;92.61;101504.72;5069148;28;20465;-76
2023/05/06 04:21:06;;;;;;;9.73;6.32;;;;;;;10.06;92.99;101507.28;5069708;28;20100;-77
2023/05/06 04:23:31;;;;;;;8.93;6.25;;;;;;;10.09;93.36;101502.88;5071065;28;20036;-77
2023/05/06 04:25:56;;;;;;;8.30;6.03;;;;;;;10.11;93.28;101506.31;5071012;28;20029;-77
2023/05/06 04:28:22;;;;;;;10.05;7.22;;;;;;;10.14;93.35;101503.69;5070764;28;20028;-76
2023/05/06 04:30:47;;;;;;;8.98;6.60;;;;;;;10.16;93.54;101506.28;5071077;28;20028;-77
2023/05/06 04:33:12;;;;;;;10.25;6.85;;;;;;;10.17;93.75;101506.25;5070161;28;20090;-77
2023/05/06 04:35:38;;;;;;;11.18;6.65;;;;;;;10.20;93.78;101510.56;5074834;28;20389;-76
2023/05/06 04:38:04;;;;;;;10.40;6.50;;;;;;;10.24;93.71;101511.38;5073095;28;20116;-77
2023/05/06 04:40:30;;;;;;;7.75;5.45;;;;;;;10.25;92.20;101513.97;5073225;28;20399;-77
2023/05/06 04:42:55;;;;;;;6.93;5.15;;;;;;;10.24;91.12;101514.84;5070311;28;20090;-77
2023/05/06 04:45:23;;;;;;;6.50;4.93;;;;;;;10.22;90.70;101503.59;5072960;28;20032;-76
2023/05/06 04:47:48;;;;;;;7.07;5.05;;;;;;;10.23;90.80;101517.47;5070622;28;20036;-77
2023/05/06 04:50:14;;;;;;;9.45;5.82;;;;;;;10.24;91.83;101516.59;5069673;28;20021;-76
2023/05/06 04:52:39;;;;;;;7.13;5.00;;;;;;;10.29;92.03;101519.97;5069062;28;20035;-77
2023/05/06 04:55:05;;;;;;;6.95;4.70;;;;;;;10.33;91.26;101517.28;5066929;28;20037;-76
2023/05/06 04:57:31;;;;;;;6.70;4.80;;;;;;;10.39;91.30;101515.53;5070342;28;20059;-77
2023/05/06 04:59:56;;;;;;;7.78;5.95;;;;;;;10.42;92.24;101515.50;5071571;28;20051;-77
2023/05/06 05:02:22;;;;;;;10.05;5.80;;;;;;;10.50;93.02;101525.78;5068497;28;20587;-77
2023/05/06 05:04:47;;;;;;;9.23;6.28;;;;;;;10.58;93.48;101530.00;5067874;28;20445;-77
2023/05/06 05:07:12;;;;;;;10.30;6.45;;;;;;;10.65;93.74;101528.16;5069581;28;20036;-77
2023/05/06 05:09:38;;;;;;;8.77;6.35;;;;;;;10.69;93.87;101532.44;5071489;28;20033;-76
2023/05/06 05:12:03;;;;;;;9.07;6.25;;;;;;;10.73;93.89;101536.72;5067989;28;20044;-76
2023/05/06 05:14:29;;;;;;;8.90;6.18;;;;;;;10.78;93.68;101534.03;5068121;28;20028;-77
2023/05/06 05:16:54;;;;;;;8.35;6.10;;;;;;;10.83;93.73;101539.19;5070782;28;20504;-76
2023/05/06 05:19:20;;;;;;;8.13;6.07;;;;;;;10.88;93.92;101532.16;5067280;28;20102;-77
2023/05/06 05:21:45;;;;;;;11.63;6.18;;;;;;;10.95;94.09;101538.97;5070153;28;20032;-77
2023/05/06 05:24:11;;;;;;;8.63;5.93;;;;;;;10.99;94.06;101538.03;5072261;28;20464;-77
2023/05/06 05:26:36;;;;;;;8.00;5.80;;;;;;;11.04;94.09;101545.78;5070993;28;20417;-77
2023/05/06 05:29:02;;;;;;;9.65;5.78;;;;;;;11.08;94.00;101545.72;5072994;28;20554;-77
2023/05/06 05:31:27;;;;;;;8.85;6.20;;;;;;;11.10;93.93;101550.06;5069645;28;20441;-77
2023/05/06 05:33:52;;;;;;;10.35;6.40;;;;;;;11.14;93.77;101557.78;5072980;28;20035;-77
2023/05/06 05:36:18;;;;;;;10.05;5.57;;;;;;;11.18;93.86;101553.38;5070553;28;20095;-77
2023/05/06 05:38:43;;;;;;;8.65;6.05;;;;;;;11.23;93.68;101552.41;5071190;28;20028;-76
2023/05/06 05:41:08;;;;;;;8.52;5.85;;;;;;;11.27;93.99;101550.63;5068807;28;20437;-76
2023/05/06 05:43:33;;;;;;;7.95;6.30;;;;;;;11.30;93.43;101566.19;5064737;28;20029;-76
2023/05/06 05:45:59;;;;;;;8.23;5.78;;;;;;;11.30;93.23;101563.56;5068450;28;20468;-76
2023/05/06 05:48:24;;;;;;;8.48;5.97;;;;;;;11.31;93.20;101567.91;5073927;28;20028;-76
2023/05/06 05:50:49;;;;;;;9.13;6.22;;;;;;;11.31;92.45;101567.91;5076224;28;20036;-76
2023/05/06 05:53:15;;;;;;;8.85;5.82;;;;;;;11.32;92.56;101567.00;5077637;28;20032;-76
2023/05/06 05:55:41;;;;;;;9.02;6.15;;;;;;;11.34;92.96;101564.41;5076809;28;20032;-76
2023/05/06 05:58:08;;;;;;;8.43;5.90;;;;;;;11.40;92.54;101569.47;5071811;28;20082;-76
2023/05/06 06:00:34;;;;;;;10.18;6.45;;;;;;;11.44;92.70;101560.72;5071885;28;20097;-76
2023/05/06 06:02:59;;;;;;;8.32;5.85;;;;;;;11.47;92.27;101565.91;5075520;28;20705;-76
2023/05/06 06:05:24;;;;;;;9.45;5.85;;;;;;;11.52;92.42;101569.28;5075882;28;20032;-76
2023/05/06 06:07:49;;;;;;;9.00;6.07;;;;;;;11.57;92.34;101566.59;5068807;28;20518;-75
2023/05/06 06:10:15;;;;;;;9.20;6.30;;;;;;;11.64;92.75;101570.78;5072601;28;20081;-76
2023/05/06 06:12:40;;;;;;;7.88;5.93;;;;;;;11.67;92.63;101570.72;5074005;28;20283;-76
2023/05/06 06:15:06;;;;;;;9.18;5.80;;;;;;;11.73;92.55;101561.94;5074098;28;21743;-75
2023/05/06 06:17:31;;;;;;;7.85;5.43;;;;;;;11.79;93.05;101560.94;5073699;28;20023;-76
2023/05/06 06:19:58;;;;;;;8.35;5.65;;;;;;;11.82;92.30;101564.38;5078136;28;20093;-76
2023/05/06 06:22:23;;;;;;;8.63;5.95;;;;;;;11.87;92.20;101563.44;5075111;28;20036;-76
2023/05/06 06:24:48;;;;;;;9.95;5.88;;;;;;;11.90;92.48;101559.00;5071577;28;20033;-75
2023/05/06 06:27:14;;;;;;;11.00;5.60;;;;;;;11.94;92.08;101560.69;5072983;28;20032;-76
2023/05/06 06:29:39;;;;;;;8.30;5.78;;;;;;;11.97;91.09;101564.97;5072891;28;20039;-76
2023/05/06 06:32:05;;;;;;;7.68;5.05;;;;;;;11.96;90.96;101566.69;5071629;28;20049;-76
2023/05/06 06:34:30;;;;;;;8.15;5.28;;;;;;;11.96;91.04;101561.47;5074405;28;20036;-76
2023/05/06 06:36:55;;;;;;;7.88;5.10;;;;;;;11.97;91.21;101568.41;5073549;28;20036;-76
2023/05/06 06:39:21;;;;;;;7.40;5.25;;;;;;;11.98;90.95;101567.56;5071505;28;20059;-76
2023/05/06 06:41:46;;;;;;;9.27;5.40;;;;;;;12.02;91.54;101578.81;5073711;28;20034;-76
2023/05/06 06:44:11;;;;;;;7.72;5.43;;;;;;;12.06;90.97;101569.16;5076725;28;20048;-76
2023/05/06 06:46:37;;;;;;;8.63;5.25;;;;;;;12.11;91.24;101575.16;5073249;28;20568;-76
2023/05/06 06:49:02;;;;;;;8.70;5.43;;;;;;;12.17;91.48;101582.00;5070032;28;20163;-76
2023/05/06 06:51:28;;;;;;;8.20;5.35;;;;;;;12.22;91.71;101574.91;5073839;28;20036;-76
2023/05/06 06:53:53;;;;;;;8.80;5.25;;;;;;;12.30;91.82;101576.47;5069000;28;20032;-76
2023/05/06 06:56:20;;;;;;;8.07;5.25;;;;;;;12.36;91.49;101572.91;5073026;28;20035;-76
2023/05/06 06:58:45;;;;;;;7.40;4.85;;;;;;;12.42;90.82;101574.50;5074873;28;20155;-76
2023/05/06 07:01:10;;;;;;;11.82;5.90;;;;;;;12.48;91.38;101584.78;5069839;28;20521;-76
2023/05/06 08:49:34;;;;;;;5.68;3.05;;;;;;;14.70;83.65;101585.16;5094812;27;20444;-76
2023/05/06 08:52:03;;;;;;;5.43;3.42;;;;;;;14.74;84.11;101582.44;5096443;28;20032;-76
2023/05/06 08:54:33;;;;;;;5.50;3.42;;;;;;;14.75;80.68;101589.38;5090919;28;20052;-76
2023/05/06 08:57:02;;;;;;;7.60;3.92;;;;;;;14.77;81.93;101587.59;5093217;28;20032;-76
2023/05/06 08:59:29;;;;;;;6.82;4.45;;;;;;;14.85;83.69;101585.59;5093151;28;20812;-74
2023/05/06 09:01:55;;;;;;;8.57;4.40;;;;;;;14.93;84.87;101583.56;5089766;28;20028;-74
2023/05/06 09:04:20;;;;;;;7.70;4.30;;;;;;;15.03;84.48;101577.13;5094475;28;20024;-74
2023/05/06 09:06:46;;;;;;;9.38;3.95;;;;;;;15.12;83.28;101577.72;5094724;28;20035;-74
2023/05/06 09:09:13;;;;;;;9.05;4.30;;;;;;;15.20;81.99;101575.69;5097338;28;20020;-75
2023/05/06 09:11:39;;;;;;;7.65;4.25;;;;;;;15.25;81.63;101580.81;5095350;28;20055;-74
2023/05/06 09:14:13;;;;;;;7.40;4.00;;;;;;;15.31;82.07;101578.84;5093311;28;20078;-74
2023/05/06 09:16:41;;;;;;;6.78;4.70;;;;;;;15.39;83.15;101572.44;5091103;28;20044;-74
2023/05/06 09:19:06;;;;;;;6.10;3.83;;;;;;;15.43;80.21;101574.06;5087530;28;20024;-74
2023/05/06 09:21:40;;;;;;;5.40;3.60;;;;;;;15.51;80.61;101565.94;5094072;28;20513;-74
2023/05/06 09:24:07;;;;;;;6.55;3.88;;;;;;;15.58;81.65;101568.28;5092488;28;20371;-74
2023/05/06 09:26:34;;;;;;;5.40;3.40;;;;;;;15.63;78.25;101566.38;5090580;28;20042;-74
2023/05/06 09:29:00;;;;;;;4.97;2.70;;;;;;;15.69;75.35;101574.94;5095493;28;20039;-75
2023/05/06 09:31:27;;;;;;;3.63;2.35;;;;;;;15.72;76.75;101565.19;5091149;28;20043;-74
2023/05/06 09:33:53;;;;;;;3.90;1.90;;;;;;;15.81;76.02;101569.25;5094022;28;20114;-74
2023/05/06 09:36:19;;;;;;;3.42;2.05;;;;;;;15.87;72.79;101578.69;5095159;28;20115;-75
2023/05/06 09:38:45;;;;;;;3.72;2.38;;;;;;;15.92;75.71;101569.72;5092554;28;20036;-75
2023/05/06 09:41:12;;;;;;;3.13;2.20;;;;;;;15.97;73.44;101576.59;5091459;28;20032;-75
2023/05/06 09:43:40;;;;;;;3.40;1.70;;;;;;;16.00;69.34;101576.47;5091154;28;20137;-77
2023/05/06 09:46:06;;;;;;;3.47;1.70;;;;;;;16.03;68.90;101565.88;5092241;28;20398;-77
2023/05/06 09:48:32;;;;;;;4.68;2.20;;;;;;;16.09;70.00;101573.50;5089829;28;20048;-77
2023/05/06 09:50:58;;;;;;;6.10;2.70;;;;;;;16.15;74.18;101573.28;5090171;28;20039;-77
2023/05/06 09:53:24;;;;;;;3.28;1.90;;;;;;;16.20;71.43;101579.22;5089494;28;20482;-74
2023/05/06 09:55:50;;;;;;;4.85;2.00;;;;;;;16.26;69.89;101574.63;5090712;28;20030;-74
2023/05/06 09:58:15;;;;;;;3.35;1.92;;;;;;;16.27;69.46;101571.09;5087185;28;20031;-74
2023/05/06 10:00:43;;;;;;;3.20;2.08;;;;;;;16.34;69.62;101572.59;5078132;28;20032;-74
2023/05/06 10:03:11;;;;;;;4.18;2.40;;;;;;;16.39;69.66;101568.88;5074510;28;20441;-74
2023/05/06 10:05:36;;;;;;;6.10;2.30;;;;;;;16.45;68.89;101566.94;5075568;28;20086;-75
2023/05/06 10:08:05;;;;;;;3.42;1.90;;;;;;;16.51;68.64;101564.91;5078601;28;20032;-74
2023/05/06 10:10:33;;;;;;;3.13;1.83;;;;;;;16.58;67.91;101556.78;5081687;28;20024;-74
2023/05/06 10:13:00;;;;;;;5.05;2.00;;;;;;;16.66;70.25;101552.09;5076866;28;20036;-75
2023/05/06 10:15:26;;;;;;;2.88;2.00;;;;;;;16.72;69.07;101557.09;5080537;28;20089;-75
2023/05/06 10:17:53;;;;;;;2.80;2.30;;;;;;;16.82;70.97;101554.97;5075587;28;20222;-75
2023/05/06 10:20:20;;;;;;;4.00;2.53;;;;;;;16.88;69.68;101546.81;5081368;28;20030;-75
2023/05/06 10:23:02;;;;;;;4.68;2.58;;;;;;;16.95;70.59;101543.06;5081330;28;20038;-74
2023/05/06 10:25:41;;;;;;;3.80;2.10;;;;;;;17.03;70.24;101540.09;5082131;28;20181;-74
2023/05/06 10:28:10;;;;;;;4.28;2.50;;;;;;;17.08;68.54;101535.47;5079232;28;20062;-75
2023/05/06 10:30:37;;;;;;;3.22;2.30;;;;;;;17.08;67.23;101532.84;5080739;28;20413;-75
2023/05/06 10:33:10;;;;;;;3.97;2.25;;;;;;;17.07;68.69;101528.53;5078779;28;20031;-75
2023/05/06 10:35:48;;;;;;;3.85;1.98;;;;;;;17.05;65.44;101533.00;5081621;28;20035;-75
2023/05/06 10:38:28;;;;;;;2.25;1.50;;;;;;;17.12;67.83;101528.34;5079828;28;20485;-75
2023/05/06 10:40:54;;;;;;;3.05;1.50;;;;;;;17.22;68.29;101528.81;5080767;28;20044;-75
2023/05/06 10:43:31;;;;;;;2.47;1.60;;;;;;;17.32;67.28;101532.75;5079692;28;20039;-74
2023/05/06 10:46:16;;;;;;;3.10;1.75;;;;;;;17.47;70.67;101527.72;5077779;28;20851;-75
2023/05/06 10:49:03;;;;;;;3.88;1.60;;;;;;;17.62;68.02;101516.53;5076230;28;20045;-74
2023/05/06 10:51:30;;;;;;;2.65;1.48;;;;;;;17.70;65.01;101519.69;5073968;28;20119;-74
2023/05/06 10:54:03;;;;;;;2.15;1.40;;;;;;;17.79;63.10;101517.53;5074645;28;20029;-74
2023/05/06 10:56:58;;;;;;;3.80;1.70;;;;;;;17.82;62.56;101514.78;5075530;28;20028;-74
2023/05/06 10:59:24;;;;;;;3.88;1.80;;;;;;;17.89;63.02;101513.59;5075016;28;20047;-75
2023/05/06 11:02:10;;;;;;;2.58;1.48;;;;;;;18.02;66.87;101513.88;5076252;28;20029;-75
2023/05/06 11:04:36;;;;;;;2.05;1.27;;;;;;;18.12;65.81;101514.31;5067187;28;20125;-74
2023/05/06 11:07:09;;;;;;;2.88;1.30;;;;;;;18.20;64.49;101518.28;5080043;28;20446;-74
2023/05/06 11:09:52;;;;;;;2.03;1.27;;;;;;;18.28;64.70;101515.28;5077758;28;20028;-74
2023/05/06 11:12:19;;;;;;;5.97;1.50;;;;;;;18.32;62.30;101514.22;5077172;28;20141;-74
2023/05/06 11:14:45;;;;;;;3.35;1.33;;;;;;;18.33;60.48;101513.28;5074368;28;20544;-75
2023/05/06 11:17:29;;;;;;;3.05;1.70;;;;;;;18.41;64.10;101509.47;5073285;28;20028;-75
2023/05/06 11:20:21;;;;;;;5.47;1.40;;;;;;;18.50;64.02;101512.50;5077023;28;20032;-75
2023/05/06 11:22:46;;;;;;;3.28;1.33;;;;;;;18.55;58.86;101507.00;5075716;28;20069;-75
2023/05/06 11:25:11;;;;;;;2.53;1.35;;;;;;;18.60;60.67;101510.28;5072287;28;20492;-75
2023/05/06 11:27:37;;;;;;;3.15;1.50;;;;;;;18.61;59.57;101495.31;5077728;28;20056;-75
2023/05/06 11:30:03;;;;;;;2.47;1.50;;;;;;;18.64;60.67;101510.97;5067654;28;20536;-75
2023/05/06 11:32:29;;;;;;;1.92;1.13;;;;;;;18.64;60.10;101503.91;5073316;28;20040;-75
2023/05/06 11:34:58;;;;;;;2.60;1.27;;;;;;;18.69;61.82;101500.19;5079539;28;20514;-75
2023/05/06 11:37:28;;;;;;;2.72;1.20;;;;;;;18.76;62.24;101518.25;5076381;28;20498;-76
2023/05/06 11:39:53;;;;;;;2.92;1.30;;;;;;;18.78;58.48;101503.22;5075376;28;20032;-75
2023/05/06 11:42:26;;;;;;;3.83;1.45;;;;;;;18.83;60.42;101500.34;5076316;28;20112;-75
2023/05/06 11:44:56;;;;;;;2.97;1.33;;;;;;;18.88;59.00;101505.38;5074765;28;20028;-75
2023/05/06 11:47:22;;;;;;;1.25;1.05;;;;;;;18.98;60.82;101501.41;5079108;28;20032;-75
2023/05/06 11:49:50;;;;;;;2.65;1.38;;;;;;;19.13;61.51;101497.13;5079714;28;20032;-74
2023/05/06 11:52:19;;;;;;;2.58;1.35;;;;;;;19.26;60.38;101497.34;5074297;28;20031;-75
2023/05/06 11:54:44;;;;;;;4.30;1.50;;;;;;;19.38;58.29;101501.13;5075841;28;20047;-75
2023/05/06 11:57:10;;;;;;;3.17;1.17;;;;;;;19.40;55.92;101505.38;5077394;28;20024;-75
2023/05/06 11:59:37;;;;;;;3.58;1.10;;;;;;;19.44;57.25;101502.59;5077293;28;20040;-75
2023/05/06 12:02:04;;;;;;;1.90;1.10;;;;;;;19.44;57.29;101497.31;5077084;28;20063;-75
2023/05/06 12:04:43;;;;;;;2.50;1.10;;;;;;;19.38;59.72;101502.00;5075843;28;20466;-75
2023/05/06 12:07:10;;;;;;;2.03;1.10;;;;;;;19.40;56.08;101496.63;5073845;28;20047;-75
2023/05/06 12:09:38;;;;;;;3.10;1.15;;;;;;;19.46;57.64;101492.81;5080128;28;20123;-75
2023/05/06 12:12:04;;;;;;;1.80;0.90;;;;;;;19.53;59.19;101495.03;5072366;28;20054;-75
2023/05/06 12:14:29;;;;;;;2.95;1.30;;;;;;;19.66;55.97;101497.00;5078659;28;20032;-76
2023/05/06 12:16:55;;;;;;;4.25;1.50;;;;;;;19.74;56.25;101497.47;5076233;28;20097;-75
2023/05/06 12:19:21;;;;;;;6.85;1.70;;;;;;;19.82;55.54;101497.03;5075797;28;20470;-76
2023/05/06 12:21:46;;;;;;;3.05;1.42;;;;;;;19.91;59.16;101493.91;5076826;28;20032;-74
2023/05/06 12:24:12;;;;;;;2.22;1.48;;;;;;;19.94;54.49;101499.03;5072681;28;20035;-75
2023/05/06 12:26:44;;;;;;;3.00;1.35;;;;;;;19.95;56.10;101492.81;5072224;28;20074;-75
2023/05/06 12:29:11;;;;;;;3.75;1.75;;;;;;;19.89;55.57;101493.19;5077072;28;20020;-75
2023/05/06 12:31:37;;;;;;;2.95;1.60;;;;;;;19.85;55.54;101497.72;5072056;28;20060;-75
2023/05/06 12:34:03;;;;;;;2.05;1.33;;;;;;;19.85;56.75;101495.06;5076651;28;20119;-75
2023/05/06 12:36:31;;;;;;;2.00;1.20;;;;;;;19.93;57.39;101496.50;5074794;28;20051;-75
2023/05/06 12:38:58;;;;;;;2.65;1.45;;;;;;;20.02;56.40;101501.25;5077313;28;20020;-75
2023/05/06 12:41:36;;;;;;;2.35;1.50;;;;;;;20.13;56.50;101492.75;5074075;28;20506;-75
2023/05/06 12:44:02;;;;;;;2.28;1.30;;;;;;;20.19;52.33;101496.81;5075552;28;20042;-75
2023/05/06 12:46:27;;;;;;;1.92;1.10;;;;;;;20.23;52.04;101493.06;5073886;28;20390;-75
2023/05/06 12:48:56;;;;;;;2.55;1.30;;;;;;;20.30;54.40;101491.81;5078717;28;20112;-75
2023/05/06 12:51:22;;;;;;;2.13;1.00;;;;;;;20.30;51.94;101490.00;5075506;28;20036;-76
2023/05/06 12:53:47;;;;;;;1.02;0.88;;;;;;;20.33;53.54;101491.59;5073685;28;20414;-75
2023/05/06 12:56:12;;;;;;;3.60;1.02;;;;;;;20.34;54.20;101485.38;5076083;28;20111;-75
2023/05/06 12:58:38;;;;;;;1.60;1.10;;;;;;;20.38;52.42;101489.56;5078181;28;20084;-75
2023/05/06 13:01:05;;;;;;;2.05;1.20;;;;;;;20.38;52.63;101486.91;5073990;28;20039;-75
2023/05/06 13:03:30;;;;;;;2.65;1.30;;;;;;;20.33;53.03;101488.97;5075376;28;20035;-75
2023/05/06 13:05:55;;;;;;;3.78;1.40;;;;;;;20.24;53.21;101487.69;5075827;28;20028;-75
2023/05/06 13:08:20;;;;;;;2.58;1.27;;;;;;;20.21;55.96;101485.25;5073618;28;20066;-75
2023/05/06 13:10:46;;;;;;;1.80;1.20;;;;;;;20.23;54.49;101482.50;5076979;28;20383;-75